Time;durP1;ratioP1;P1;durP2;ratioP2;P2;SDS_P1;SDS_P2;PMS_P1;PMS_P2;Temp;Humidity;BMP_temperature;BMP_pressure;BME280_temperature;BME280_humidity;BME280_pressure;Samples;Min_cycle;Max_cycle;Signal;HPM_P1;HPM_P2
2022/12/24 00:01:15;;;;;;;43.90;15.47;;;6.30;99.90;;;;;;4994732;28;20039;-87
2022/12/24 00:03:41;;;;;;;39.45;14.32;;;6.50;99.90;;;;;;4991356;28;20354;-87
2022/12/24 00:06:12;;;;;;;43.55;13.60;;;6.30;99.90;;;;;;4985321;28;20069;-87
2022/12/24 00:08:40;;;;;;;42.55;15.38;;;6.30;99.90;;;;;;5008213;28;20069;-87
2022/12/24 00:11:06;;;;;;;45.25;15.80;;;6.30;99.90;;;;;;4998211;28;20116;-87
2022/12/24 00:13:32;;;;;;;41.55;14.32;;;6.70;99.90;;;;;;5008396;28;20038;-87
2022/12/24 00:15:58;;;;;;;42.45;15.63;;;6.30;99.90;;;;;;5033692;28;20033;-87
2022/12/24 00:18:24;;;;;;;54.78;15.95;;;6.30;99.90;;;;;;4991111;28;20041;-87
2022/12/24 00:20:49;;;;;;;42.70;15.35;;;6.30;99.90;;;;;;4997374;28;20503;-87
2022/12/24 00:23:16;;;;;;;44.63;15.10;;;6.90;99.90;;;;;;5004529;28;20401;-87
2022/12/24 00:25:42;;;;;;;43.20;15.00;;;6.40;99.90;;;;;;5025397;28;20037;-87
2022/12/24 00:28:08;;;;;;;41.97;15.05;;;6.30;99.90;;;;;;4978266;28;20044;-87
2022/12/24 00:30:33;;;;;;;42.03;13.70;;;6.30;99.90;;;;;;5008931;28;20168;-87
2022/12/24 00:32:59;;;;;;;46.22;14.15;;;6.80;99.90;;;;;;5004043;28;20470;-86
2022/12/24 00:35:25;;;;;;;38.43;14.47;;;6.40;99.90;;;;;;4985808;28;20504;-87
2022/12/24 00:37:50;;;;;;;37.83;13.35;;;6.30;99.90;;;;;;5005211;28;20038;-87
2022/12/24 00:40:17;;;;;;;40.00;13.70;;;6.30;99.90;;;;;;4989299;28;20042;-87
2022/12/24 00:42:43;;;;;;;42.58;13.25;;;6.40;99.90;;;;;;4981674;28;20136;-88
2022/12/24 00:45:10;;;;;;;37.45;13.88;;;6.40;99.90;;;;;;5023631;28;20073;-88
2022/12/24 00:47:36;;;;;;;38.35;13.70;;;6.30;99.90;;;;;;4998734;28;20496;-88
2022/12/24 00:50:03;;;;;;;41.72;14.00;;;6.30;99.90;;;;;;4974647;28;20033;-88
2022/12/24 00:52:28;;;;;;;46.05;14.05;;;6.30;99.90;;;;;;4993503;28;20493;-88
2022/12/24 00:54:54;;;;;;;41.63;13.80;;;6.30;99.90;;;;;;5029637;28;20126;-88
2022/12/24 00:57:20;;;;;;;42.67;14.15;;;6.80;99.90;;;;;;4985332;28;20703;-88
2022/12/24 00:59:45;;;;;;;43.93;14.73;;;6.30;99.90;;;;;;4969001;28;20038;-88
2022/12/24 01:02:11;;;;;;;36.40;12.80;;;6.50;99.90;;;;;;4998617;28;20284;-88
2022/12/24 01:07:21;;;;;;;33.67;12.27;;;6.30;99.90;;;;;;4985396;28;20050;-88
2022/12/24 01:09:46;;;;;;;37.40;14.00;;;6.30;99.90;;;;;;4990412;28;20038;-89
2022/12/24 01:12:12;;;;;;;43.63;13.97;;;6.90;99.90;;;;;;4964423;28;20495;-88
2022/12/24 01:14:38;;;;;;;42.00;13.35;;;6.40;99.90;;;;;;4962413;28;20345;-88
2022/12/24 01:17:04;;;;;;;43.15;13.18;;;6.40;99.90;;;;;;4989100;28;20037;-88
2022/12/24 01:19:29;;;;;;;36.40;13.10;;;6.40;99.90;;;;;;4990273;28;20041;-88
2022/12/24 01:21:55;;;;;;;32.20;13.43;;;6.40;99.90;;;;;;5003878;28;20064;-88
2022/12/24 01:24:21;;;;;;;36.93;13.47;;;6.40;99.90;;;;;;4989167;28;20406;-88
2022/12/24 01:26:46;;;;;;;34.73;12.77;;;6.40;99.90;;;;;;5023108;28;20300;-88
2022/12/24 01:29:15;;;;;;;31.80;12.20;;;5.50;99.90;;;;;;5004639;28;20378;-88
2022/12/24 01:31:41;;;;;;;35.90;13.80;;;6.40;99.90;;;;;;4975377;28;20034;-88
2022/12/24 01:34:06;;;;;;;35.07;12.37;;;6.40;99.90;;;;;;4989000;28;20029;-88
2022/12/24 01:36:32;;;;;;;37.85;13.80;;;6.40;99.90;;;;;;4993647;28;20371;-89
2022/12/24 01:38:58;;;;;;;30.80;12.30;;;7.00;99.90;;;;;;4989913;28;20038;-88
2022/12/24 01:44:30;;;;;;;36.78;13.07;;;6.40;99.90;;;;;;4994883;28;20285;-88
2022/12/24 01:47:14;;;;;;;36.08;13.40;;;6.40;99.90;;;;;;5012381;28;20042;-88
2022/12/24 01:49:45;;;;;;;38.25;13.30;;;6.40;99.90;;;;;;5026021;28;20136;-88
2022/12/24 01:52:21;;;;;;;39.72;13.27;;;6.40;99.90;;;;;;5013097;28;20116;-88
2022/12/24 01:54:51;;;;;;;36.38;13.57;;;6.50;99.90;;;;;;5012995;28;20411;-89
2022/12/24 01:57:38;;;;;;;38.47;12.43;;;6.50;99.90;;;;;;5026648;28;20038;-88
2022/12/24 02:00:09;;;;;;;42.42;13.95;;;7.10;99.90;;;;;;5020930;28;20074;-88
2022/12/24 02:02:35;;;;;;;42.65;13.80;;;6.50;99.90;;;;;;5020579;28;20116;-87
2022/12/24 02:05:07;;;;;;;41.20;14.70;;;6.50;99.90;;;;;;5007812;28;20437;-87
2022/12/24 02:07:33;;;;;;;35.55;13.98;;;6.50;99.90;;;;;;5020756;28;20049;-86
2022/12/24 02:10:00;;;;;;;;;;;6.50;99.90;;;;;;4988315;28;20116;-87
2022/12/24 02:12:32;;;;;;;44.63;13.50;;;6.60;99.90;;;;;;5029171;28;20333;-87
2022/12/24 02:14:58;;;;;;;33.70;13.25;;;6.50;99.90;;;;;;5022823;28;20045;-87
2022/12/24 02:17:38;;;;;;;40.20;13.95;;;6.50;99.90;;;;;;4992528;28;20045;-87
2022/12/24 02:20:42;;;;;;;37.75;13.35;;;6.50;99.90;;;;;;5027602;28;20037;-87
2022/12/24 02:23:28;;;;;;;36.10;12.63;;;6.50;99.90;;;;;;5005625;28;20065;-87
2022/12/24 02:25:54;;;;;;;37.00;12.17;;;6.50;99.90;;;;;;5007484;28;20041;-87
2022/12/24 02:28:51;;;;;;;34.00;11.87;;;6.50;99.90;;;;;;5008916;28;20044;-87
2022/12/24 02:31:26;;;;;;;40.78;12.48;;;6.60;99.90;;;;;;5007064;28;20041;-88
2022/12/24 02:34:22;;;;;;;40.05;13.07;;;6.50;99.90;;;;;;5026134;28;20041;-88
2022/12/24 02:37:19;;;;;;;45.28;13.65;;;6.60;99.90;;;;;;5021332;28;20038;-88
2022/12/24 02:39:51;;;;;;;41.95;14.48;;;6.60;99.90;;;;;;5018687;28;20137;-88
2022/12/24 02:42:22;;;;;;;38.25;13.38;;;6.60;99.90;;;;;;5011927;28;20449;-87
2022/12/24 02:45:18;;;;;;;36.95;13.20;;;6.60;99.90;;;;;;5033244;28;20048;-88
2022/12/24 02:47:45;;;;;;;34.60;12.82;;;6.60;99.90;;;;;;5026347;28;20124;-88
2022/12/24 02:50:13;;;;;;;40.35;14.50;;;6.60;99.90;;;;;;5005200;28;20057;-88
2022/12/24 02:52:43;;;;;;;36.50;13.50;;;6.60;99.90;;;;;;5008845;28;20521;-87
2022/12/24 02:55:24;;;;;;;34.88;12.32;;;6.70;99.90;;;;;;4988530;28;20040;-88
2022/12/24 02:58:08;;;;;;;38.65;13.57;;;6.70;99.90;;;;;;5003089;28;20492;-88
2022/12/24 03:00:56;;;;;;;34.60;13.40;;;6.70;99.90;;;;;;5009978;28;20037;-88
2022/12/24 03:03:47;;;;;;;34.03;12.43;;;6.70;99.90;;;;;;4964032;28;20085;-89
2022/12/24 03:06:26;;;;;;;41.67;14.65;;;6.70;99.90;;;;;;5013316;28;20034;-88
2022/12/24 03:09:11;;;;;;;36.80;13.45;;;6.80;99.90;;;;;;5013449;28;20038;-89
2022/12/24 03:11:43;;;;;;;39.45;14.13;;;6.80;99.90;;;;;;5025638;28;20167;-89
2022/12/24 03:14:09;;;;;;;37.60;13.73;;;6.80;99.90;;;;;;5025167;28;20041;-89
2022/12/24 03:16:35;;;;;;;36.03;13.55;;;6.90;99.90;;;;;;5000286;28;20049;-89
2022/12/24 03:19:02;;;;;;;33.70;12.82;;;6.90;99.90;;;;;;5005622;28;20100;-89
2022/12/24 03:21:33;;;;;;;35.10;13.55;;;7.00;99.90;;;;;;4987516;28;20044;-88
2022/12/24 03:23:59;;;;;;;35.97;13.18;;;7.10;99.90;;;;;;5019573;28;20649;-89
2022/12/24 03:26:27;;;;;;;29.98;10.75;;;7.10;99.90;;;;;;5024429;28;20203;-88
2022/12/24 03:28:53;;;;;;;25.55;10.45;;;7.30;99.90;;;;;;5010631;28;20091;-89
2022/12/24 03:31:20;;;;;;;25.95;10.48;;;7.40;99.90;;;;;;5009318;28;20037;-89
2022/12/24 03:33:46;;;;;;;25.25;10.32;;;7.50;99.90;;;;;;5011694;28;20041;-89
2022/12/24 03:36:13;;;;;;;24.70;9.02;;;7.60;99.90;;;;;;4988119;28;20107;-89
2022/12/24 03:38:38;;;;;;;;;;;7.70;99.90;;;;;;5021241;28;21292;-89
2022/12/24 03:41:05;;;;;;;18.33;8.55;;;7.70;99.90;;;;;;5006364;28;19917;-89
2022/12/24 03:43:30;;;;;;;23.35;7.85;;;7.70;99.90;;;;;;4989094;28;20053;-89
2022/12/24 03:45:56;;;;;;;20.13;7.97;;;7.80;99.90;;;;;;5013600;28;20075;-90
2022/12/24 03:48:22;;;;;;;18.17;8.48;;;7.80;99.90;;;;;;4987457;28;20442;-89
2022/12/24 03:50:48;;;;;;;19.45;7.90;;;7.80;99.90;;;;;;5003705;28;20288;-89
2022/12/24 03:53:13;;;;;;;21.03;8.63;;;7.80;99.90;;;;;;5005083;28;20030;-89
2022/12/24 03:55:39;;;;;;;20.50;7.30;;;7.80;99.90;;;;;;5005433;28;20037;-88
2022/12/24 03:58:05;;;;;;;23.33;8.63;;;7.80;99.90;;;;;;5013969;28;20124;-89
2022/12/24 04:00:31;;;;;;;;;;;7.80;99.90;;;;;;5021275;28;20100;-89
2022/12/24 04:02:57;;;;;;;21.77;9.00;;;7.80;99.90;;;;;;5021429;28;19917;-89
2022/12/24 04:05:23;;;;;;;27.80;9.50;;;7.80;99.90;;;;;;4992312;28;20069;-89
2022/12/24 04:07:48;;;;;;;25.00;8.30;;;7.80;99.90;;;;;;4987502;28;20045;-89
2022/12/24 04:10:15;;;;;;;20.33;9.57;;;7.90;99.90;;;;;;5022526;28;20042;-89
2022/12/24 04:12:41;;;;;;;26.98;8.25;;;7.80;99.90;;;;;;5003332;28;20092;-88
2022/12/24 04:15:08;;;;;;;25.35;8.07;;;7.90;99.90;;;;;;5024180;28;20061;-89
2022/12/24 04:17:34;;;;;;;26.17;7.78;;;7.90;99.90;;;;;;5009686;28;20034;-89
2022/12/24 04:20:00;;;;;;;25.55;7.32;;;8.00;99.90;;;;;;5010475;28;20064;-89
2022/12/24 04:22:25;;;;;;;22.38;7.45;;;8.00;99.90;;;;;;4992509;28;20050;-89
2022/12/24 04:24:51;;;;;;;37.07;6.83;;;8.00;99.90;;;;;;5009327;28;20484;-89
2022/12/24 04:27:17;;;;;;;28.50;7.07;;;8.10;99.90;;;;;;4991357;28;20291;-89
2022/12/24 04:29:42;;;;;;;24.35;5.90;;;8.00;99.90;;;;;;5008727;28;20044;-89
2022/12/24 04:32:09;;;;;;;27.95;5.40;;;8.00;99.90;;;;;;4992291;28;20037;-89
2022/12/24 04:34:35;;;;;;;22.15;5.82;;;8.10;99.90;;;;;;4992068;28;20569;-89
2022/12/24 04:37:01;;;;;;;23.90;4.60;;;8.10;99.90;;;;;;4989153;28;20034;-89
2022/12/24 04:39:27;;;;;;;26.00;4.47;;;8.20;99.90;;;;;;5009103;28;20042;-89
2022/12/24 04:41:53;;;;;;;26.92;4.95;;;8.30;99.90;;;;;;5009933;28;20030;-89
2022/12/24 04:44:19;;;;;;;34.80;4.17;;;8.10;99.90;;;;;;4984015;28;20045;-89
2022/12/24 04:46:44;;;;;;;35.15;4.63;;;8.20;99.90;;;;;;5003140;28;20285;-89
2022/12/24 04:49:10;;;;;;;35.60;4.70;;;8.10;99.90;;;;;;4988571;28;20132;-89
2022/12/24 04:51:36;;;;;;;26.77;3.85;;;8.10;99.90;;;;;;4984960;28;20552;-90
2022/12/24 04:54:02;;;;;;;24.85;4.90;;;8.20;99.90;;;;;;5007801;28;20026;-89
2022/12/24 04:56:30;;;;;;;26.88;4.05;;;8.10;99.90;;;;;;4984225;28;20092;-89
2022/12/24 04:58:57;;;;;;;34.28;5.20;;;8.10;99.90;;;;;;5000919;28;20045;-89
2022/12/24 05:01:29;;;;;;;30.83;4.70;;;8.10;99.90;;;;;;4992137;28;20050;-89
2022/12/24 05:03:55;;;;;;;32.95;4.82;;;8.10;99.90;;;;;;5021342;28;20036;-89
2022/12/24 05:06:23;;;;;;;25.05;3.92;;;8.00;99.90;;;;;;5001196;28;20099;-90
2022/12/24 05:08:49;;;;;;;26.40;3.50;;;8.10;99.90;;;;;;5017351;28;20490;-89
2022/12/24 05:11:15;;;;;;;19.05;3.88;;;8.00;99.90;;;;;;4987412;28;20053;-89
2022/12/24 05:13:42;;;;;;;34.88;5.43;;;8.10;99.90;;;;;;5012622;28;20045;-90
2022/12/24 05:16:09;;;;;;;25.85;4.35;;;8.10;99.90;;;;;;4986616;28;20045;-89
2022/12/24 05:18:35;;;;;;;;;;;8.10;99.90;;;;;;5013392;28;20172;-89
2022/12/24 05:21:00;;;;;;;34.38;4.65;;;8.00;99.90;;;;;;4998857;28;19952;-89
2022/12/24 05:26:48;;;;;;;26.38;3.90;;;8.00;99.90;;;;;;5012029;28;20370;-89
2022/12/24 05:29:14;;;;;;;40.03;5.40;;;8.10;99.90;;;;;;5011331;28;20046;-89
2022/12/24 05:31:41;;;;;;;33.63;4.55;;;8.10;99.90;;;;;;4991178;28;20038;-89
2022/12/24 05:34:07;;;;;;;31.55;4.18;;;8.00;99.90;;;;;;4990814;28;20050;-88
2022/12/24 05:36:33;;;;;;;26.65;3.67;;;8.10;99.90;;;;;;5017698;28;20071;-89
2022/12/24 05:38:59;;;;;;;38.05;4.65;;;8.00;99.90;;;;;;5020984;28;20049;-89
2022/12/24 05:41:25;;;;;;;34.13;5.28;;;8.00;99.90;;;;;;5010217;28;20038;-90
2022/12/24 05:43:51;;;;;;;34.95;4.65;;;8.10;99.90;;;;;;5007455;28;20164;-89
2022/12/24 05:46:19;;;;;;;33.75;4.13;;;8.10;99.90;;;;;;5024445;28;20037;-89
2022/12/24 05:48:45;;;;;;;32.42;4.80;;;8.00;99.90;;;;;;5009766;28;20044;-89
2022/12/24 05:51:13;;;;;;;35.60;4.30;;;8.00;99.90;;;;;;4999337;28;20029;-89
2022/12/24 05:53:39;;;;;;;34.72;4.63;;;8.10;99.90;;;;;;5028925;28;20570;-89
2022/12/24 05:56:06;;;;;;;;;;;8.10;99.90;;;;;;5025620;28;20042;-89
2022/12/24 05:58:32;;;;;;;26.73;4.33;;;8.10;99.90;;;;;;5028462;28;20389;-89
2022/12/24 06:00:59;;;;;;;34.40;4.47;;;8.00;99.90;;;;;;5017689;28;20037;-89
2022/12/24 06:03:24;;;;;;;27.73;4.60;;;8.10;99.90;;;;;;5008215;28;20048;-90
2022/12/24 06:06:07;;;;;;;39.80;4.47;;;8.00;99.90;;;;;;5008316;28;20037;-90
2022/12/24 06:08:34;;;;;;;23.83;4.10;;;8.00;99.90;;;;;;5025495;28;20387;-90
2022/12/24 06:11:02;;;;;;;30.58;4.00;;;8.10;99.90;;;;;;5011581;28;20055;-90
2022/12/24 06:13:28;;;;;;;33.45;4.78;;;8.50;99.90;;;;;;5027681;28;20104;-90
2022/12/24 06:15:55;;;;;;;25.52;3.65;;;8.00;99.90;;;;;;4988439;28;20041;-90
2022/12/24 06:18:21;;;;;;;36.10;4.43;;;8.00;99.90;;;;;;5013521;28;20533;-90
2022/12/24 06:20:51;;;;;;;;;;;8.00;99.90;;;;;;4996886;28;20111;-90
2022/12/24 06:23:16;;;;;;;32.85;4.47;;;8.00;99.90;;;;;;5021444;28;19917;-90
2022/12/24 06:25:42;;;;;;;28.15;4.05;;;8.00;99.90;;;;;;5005203;28;20044;-90
2022/12/24 06:28:08;;;;;;;30.05;5.63;;;8.10;99.90;;;;;;5008879;28;20399;-90
2022/12/24 06:30:34;;;;;;;31.00;4.35;;;8.10;99.90;;;;;;4987291;28;20486;-90
2022/12/24 06:32:59;;;;;;;24.52;4.55;;;8.00;99.90;;;;;;5014418;28;20045;-91
2022/12/24 06:35:25;;;;;;;31.03;3.73;;;8.10;99.90;;;;;;5003609;28;20100;-91
2022/12/24 06:37:51;;;;;;;38.95;5.80;;;8.10;99.90;;;;;;5008542;28;20776;-91
2022/12/24 06:40:16;;;;;;;32.00;4.47;;;8.10;99.90;;;;;;5008251;28;20037;-91
2022/12/24 06:42:42;;;;;;;28.98;3.92;;;8.10;99.90;;;;;;5008471;28;20789;-91
2022/12/24 06:45:08;;;;;;;29.45;3.85;;;8.10;99.90;;;;;;5011152;28;20443;-91
2022/12/24 06:47:34;;;;;;;25.40;4.95;;;8.10;99.90;;;;;;4989951;28;20110;-89
2022/12/24 06:50:00;;;;;;;30.63;3.67;;;8.10;99.90;;;;;;4996489;28;20066;-91
2022/12/24 06:52:25;;;;;;;29.77;4.17;;;8.10;99.90;;;;;;4988338;28;20324;-91
2022/12/24 06:54:51;;;;;;;30.63;4.17;;;8.10;99.90;;;;;;4993961;28;20291;-90
2022/12/24 06:57:16;;;;;;;35.55;4.18;;;8.00;99.90;;;;;;5024673;28;20037;-91
2022/12/24 06:59:42;;;;;;;34.07;4.80;;;8.00;99.90;;;;;;5027217;28;20034;-90
2022/12/24 07:02:09;;;;;;;37.33;5.32;;;8.00;99.90;;;;;;5012080;28;20281;-90
2022/12/24 07:04:35;;;;;;;30.98;4.43;;;7.80;99.90;;;;;;5005114;28;20042;-90
2022/12/24 07:07:00;;;;;;;31.10;3.95;;;7.90;99.90;;;;;;5006026;28;20037;-91
2022/12/24 07:09:26;;;;;;;29.67;4.37;;;7.80;99.90;;;;;;5001519;28;20051;-91
2022/12/24 07:11:52;;;;;;;41.95;4.35;;;7.80;99.90;;;;;;4989388;28;20364;-91
2022/12/24 07:14:17;;;;;;;34.22;4.32;;;7.90;99.90;;;;;;5007990;28;20050;-90
2022/12/24 07:16:43;;;;;;;28.40;4.75;;;7.80;99.90;;;;;;5017182;28;20095;-91
2022/12/24 07:19:09;;;;;;;31.85;4.80;;;7.90;99.90;;;;;;4984475;28;20046;-91
2022/12/24 07:21:34;;;;;;;29.53;4.23;;;7.80;99.90;;;;;;4997018;28;20101;-91
2022/12/24 07:24:00;;;;;;;30.57;4.37;;;7.80;99.90;;;;;;4988184;28;20289;-90
2022/12/24 07:26:26;;;;;;;23.90;3.93;;;7.80;99.90;;;;;;5014164;28;20292;-90
2022/12/24 07:28:51;;;;;;;28.85;5.35;;;7.80;99.90;;;;;;4992281;28;20045;-91
2022/12/24 07:31:17;;;;;;;41.20;5.83;;;7.80;99.90;;;;;;5000819;28;20494;-89
2022/12/24 07:33:43;;;;;;;28.92;3.88;;;7.80;99.90;;;;;;5006737;28;20292;-91
2022/12/24 07:36:16;;;;;;;25.97;3.93;;;7.80;99.90;;;;;;5010758;28;20049;-91
2022/12/24 07:38:42;;;;;;;37.45;4.20;;;7.80;99.90;;;;;;5005948;28;20370;-91
2022/12/24 07:41:07;;;;;;;29.37;4.43;;;7.80;99.90;;;;;;4991894;28;20050;-91
2022/12/24 07:43:33;;;;;;;24.83;4.43;;;7.70;99.90;;;;;;5009461;28;20280;-91
2022/12/24 07:45:59;;;;;;;21.15;3.65;;;7.70;99.90;;;;;;4985166;28;20080;-90
2022/12/24 07:48:27;;;;;;;28.27;3.63;;;7.70;99.90;;;;;;5001796;28;20041;-90
2022/12/24 07:50:53;;;;;;;33.10;4.03;;;7.80;99.90;;;;;;5020114;28;20036;-84
2022/12/24 07:53:19;;;;;;;33.83;4.68;;;7.80;99.90;;;;;;5007115;28;20506;-83
2022/12/24 07:55:45;;;;;;;37.65;4.93;;;7.90;99.90;;;;;;4998388;28;20100;-83
2022/12/24 07:58:10;;;;;;;21.65;4.70;;;8.00;99.90;;;;;;5016202;28;20504;-83
2022/12/24 08:00:36;;;;;;;33.67;4.93;;;7.90;99.90;;;;;;5003714;28;20049;-83
2022/12/24 08:03:03;;;;;;;26.75;4.68;;;7.90;99.90;;;;;;5009332;28;20072;-82
2022/12/24 08:05:35;;;;;;;30.85;4.60;;;7.90;99.90;;;;;;5008715;28;20102;-83
2022/12/24 08:08:00;;;;;;;26.85;4.35;;;8.00;99.90;;;;;;5034792;28;20127;-83
2022/12/24 08:10:26;;;;;;;37.00;4.77;;;8.00;99.90;;;;;;5011200;28;20437;-79
2022/12/24 08:12:52;;;;;;;28.33;4.47;;;8.00;99.90;;;;;;5021153;28;20322;-79
2022/12/24 08:15:18;;;;;;;34.72;4.32;;;8.00;99.90;;;;;;5027849;28;20048;-79
2022/12/24 08:17:44;;;;;;;34.33;4.65;;;8.10;99.90;;;;;;5023560;28;20413;-80
2022/12/24 08:20:10;;;;;;;28.33;3.90;;;8.10;99.90;;;;;;5017446;28;20100;-81
2022/12/24 08:22:36;;;;;;;;;;;8.10;99.90;;;;;;5012457;28;20474;-81
2022/12/24 08:25:01;;;;;;;47.65;5.63;;;8.20;99.90;;;;;;5007182;28;19917;-80
2022/12/24 08:27:27;;;;;;;26.77;5.23;;;8.20;99.90;;;;;;5001333;28;20076;-80
2022/12/24 08:29:53;;;;;;;26.88;4.60;;;8.20;99.90;;;;;;5005359;28;20030;-79
2022/12/24 08:32:19;;;;;;;29.27;4.33;;;8.20;99.90;;;;;;4992854;28;20126;-80
2022/12/24 08:34:44;;;;;;;31.20;5.38;;;8.30;99.90;;;;;;5006798;28;20777;-80
2022/12/24 08:37:10;;;;;;;29.73;4.95;;;8.30;99.90;;;;;;4997358;28;20045;-81
2022/12/24 08:39:35;;;;;;;36.67;5.17;;;8.30;99.90;;;;;;5016151;28;20127;-81
2022/12/24 08:42:01;;;;;;;29.77;5.17;;;8.30;99.90;;;;;;4999287;28;20295;-80
2022/12/24 08:44:27;;;;;;;26.57;4.30;;;8.30;99.90;;;;;;4985456;28;20319;-81
2022/12/24 08:46:52;;;;;;;21.90;4.75;;;8.30;99.90;;;;;;5015292;28;20040;-80
2022/12/24 08:49:18;;;;;;;27.60;4.20;;;8.40;99.90;;;;;;4998232;28;20572;-78
2022/12/24 08:51:44;;;;;;;31.70;4.57;;;8.40;99.90;;;;;;5019873;28;20277;-82
2022/12/24 08:54:09;;;;;;;35.57;4.53;;;8.40;99.90;;;;;;5022219;28;20095;-84
2022/12/24 08:56:37;;;;;;;28.97;4.60;;;8.40;99.90;;;;;;4996494;28;20291;-80
2022/12/24 08:59:03;;;;;;;26.25;4.50;;;8.30;99.90;;;;;;5016505;28;20392;-79
2022/12/24 09:01:30;;;;;;;29.30;4.68;;;8.40;99.90;;;;;;4990968;28;20618;-80
2022/12/24 09:03:56;;;;;;;26.55;5.13;;;8.50;99.90;;;;;;5001263;28;20045;-80
2022/12/24 09:06:22;;;;;;;31.23;5.38;;;8.40;99.90;;;;;;5007184;28;20041;-79
2022/12/24 09:08:48;;;;;;;29.90;4.53;;;8.50;99.90;;;;;;5001515;28;20038;-82
2022/12/24 09:11:17;;;;;;;25.63;4.72;;;8.50;99.90;;;;;;4990841;28;20141;-80
2022/12/24 09:13:43;;;;;;;28.80;4.70;;;8.50;99.90;;;;;;5004599;28;20041;-81
2022/12/24 09:16:09;;;;;;;;;;;8.60;99.90;;;;;;5009708;28;20121;-82
2022/12/24 09:18:34;;;;;;;25.83;4.20;;;8.60;99.90;;;;;;5003366;28;19960;-82
2022/12/24 09:21:02;;;;;;;30.45;5.95;;;8.60;99.90;;;;;;5005653;28;20095;-82
2022/12/24 09:23:29;;;;;;;34.42;4.78;;;8.70;99.90;;;;;;4996367;28;20402;-82
2022/12/24 09:25:54;;;;;;;27.13;3.97;;;8.50;99.90;;;;;;5002633;28;20056;-82
2022/12/24 09:28:21;;;;;;;19.83;3.40;;;8.60;99.90;;;;;;5004293;28;20083;-81
2022/12/24 09:30:58;;;;;;;38.08;4.72;;;8.70;99.90;;;;;;4980323;28;20094;-81
2022/12/24 09:33:24;;;;;;;34.75;4.13;;;8.70;99.90;;;;;;5000530;28;20034;-80
2022/12/24 09:35:51;;;;;;;26.50;4.72;;;8.80;99.90;;;;;;4991807;28;20038;-80
2022/12/24 09:38:18;;;;;;;24.00;4.25;;;8.80;99.90;;;;;;5005517;28;20088;-78
2022/12/24 09:40:44;;;;;;;28.60;4.20;;;8.70;99.90;;;;;;4986796;28;20041;-79
2022/12/24 09:43:16;;;;;;;38.05;5.47;;;8.80;99.90;;;;;;5020012;28;20037;-80
2022/12/24 09:45:51;;;;;;;32.17;4.40;;;8.70;99.90;;;;;;5019715;28;20421;-78
2022/12/24 09:48:22;;;;;;;23.98;4.55;;;8.80;99.90;;;;;;5009907;28;20037;-79
2022/12/24 09:51:25;;;;;;;25.70;4.05;;;8.80;99.90;;;;;;5024998;28;20053;-80
2022/12/24 09:53:57;;;;;;;31.45;4.55;;;8.70;99.90;;;;;;5007431;28;20045;-79
2022/12/24 09:56:28;;;;;;;24.13;4.25;;;8.70;99.90;;;;;;5013918;28;20121;-80
2022/12/24 09:58:57;;;;;;;35.67;5.07;;;8.80;99.90;;;;;;5017119;28;20117;-82
2022/12/24 10:01:23;;;;;;;36.03;4.93;;;8.80;99.90;;;;;;5000342;28;20053;-82
2022/12/24 10:03:49;;;;;;;28.88;4.97;;;8.90;99.90;;;;;;4996826;28;20052;-81
2022/12/24 10:06:49;;;;;;;28.35;4.75;;;9.00;99.90;;;;;;4986152;28;20041;-82
2022/12/24 10:09:56;;;;;;;34.85;5.25;;;9.10;99.90;;;;;;5027697;28;20116;-81
2022/12/24 10:12:46;;;;;;;24.55;4.38;;;9.10;99.90;;;;;;4957076;28;20058;-81
2022/12/24 10:15:34;;;;;;;29.63;4.43;;;9.10;99.90;;;;;;5003302;28;20041;-81
2022/12/24 10:18:33;;;;;;;29.73;4.72;;;9.10;99.90;;;;;;5021509;28;20124;-81
2022/12/24 10:21:22;;;;;;;30.25;4.80;;;9.20;99.90;;;;;;5015741;28;20041;-81
2022/12/24 10:24:11;;;;;;;28.60;4.47;;;9.30;99.90;;;;;;5017095;28;20033;-81
2022/12/24 10:26:49;;;;;;;27.15;5.05;;;9.50;99.90;;;;;;5023117;28;20041;-83
2022/12/24 10:29:26;;;;;;;22.98;4.85;;;9.80;99.90;;;;;;5009446;28;20129;-81
2022/12/24 10:32:06;;;;;;;24.73;5.38;;;10.10;99.90;;;;;;5015125;28;20091;-81
2022/12/24 10:34:39;;;;;;;26.38;5.13;;;10.40;99.90;;;;;;5020223;28;20513;-81
2022/12/24 10:37:05;;;;;;;29.92;4.80;;;10.40;99.90;;;;;;5022962;28;20124;-81
2022/12/24 10:39:31;;;;;;;30.15;5.22;;;10.40;99.90;;;;;;5003703;28;20037;-80
2022/12/24 10:41:59;;;;;;;24.20;4.22;;;10.30;99.90;;;;;;5020588;28;20398;-80
2022/12/24 10:44:31;;;;;;;20.98;4.63;;;10.30;99.90;;;;;;5020621;28;20116;-80
2022/12/24 10:46:58;;;;;;;24.40;4.28;;;10.30;99.90;;;;;;5028509;28;20045;-80
2022/12/24 10:49:36;;;;;;;22.38;3.90;;;10.30;99.90;;;;;;5001100;28;20045;-79
2022/12/24 10:52:10;;;;;;;24.58;4.70;;;10.30;99.90;;;;;;5008205;28;20038;-79
2022/12/24 10:54:41;;;;;;;23.67;4.00;;;10.40;99.90;;;;;;5025384;28;20043;-79
2022/12/24 10:57:24;;;;;;;19.98;4.03;;;10.50;99.90;;;;;;5022764;28;20038;-79
2022/12/24 10:59:54;;;;;;;26.65;4.00;;;10.40;99.90;;;;;;5019922;28;20555;-79
2022/12/24 11:02:39;;;;;;;26.27;4.20;;;10.30;99.90;;;;;;5020799;28;20073;-82
2022/12/24 11:05:25;;;;;;;20.42;3.45;;;10.20;99.90;;;;;;5022638;28;20041;-79
2022/12/24 11:08:05;;;;;;;24.50;3.80;;;10.20;99.90;;;;;;5000641;28;20050;-79
2022/12/24 11:10:35;;;;;;;24.27;3.83;;;10.10;99.90;;;;;;5018690;28;20140;-79
2022/12/24 11:13:01;;;;;;;26.60;4.65;;;10.10;99.90;;;;;;5002373;28;20042;-79
2022/12/24 11:15:35;;;;;;;11.38;3.17;;;10.00;99.90;;;;;;4999487;28;20042;-79
2022/12/24 11:18:12;;;;;;;18.20;3.50;;;9.90;99.90;;;;;;5000538;28;20106;-78
2022/12/24 11:20:38;;;;;;;24.55;3.90;;;9.90;99.90;;;;;;5023802;28;20041;-79
2022/12/24 11:23:04;;;;;;;;;;;9.90;99.90;;;;;;4990151;28;20040;-79
2022/12/24 11:25:39;;;;;;;23.55;3.92;;;9.90;99.90;;;;;;5027029;28;19923;-79
2022/12/24 11:28:34;;;;;;;20.58;3.65;;;9.90;99.90;;;;;;5024213;28;20037;-79
2022/12/24 11:31:06;;;;;;;20.15;3.47;;;9.90;99.90;;;;;;5000964;28;20045;-79
2022/12/24 11:33:48;;;;;;;19.92;3.35;;;9.90;99.90;;;;;;5019299;28;20496;-78
2022/12/24 11:36:19;;;;;;;26.38;4.45;;;9.80;99.90;;;;;;5022115;28;20064;-78
2022/12/24 11:38:52;;;;;;;16.17;3.85;;;9.80;99.90;;;;;;5018472;28;20042;-79
2022/12/24 11:41:17;;;;;;;23.73;3.88;;;9.80;99.90;;;;;;4988512;28;20164;-80
2022/12/24 11:43:47;;;;;;;13.57;2.85;;;9.80;99.90;;;;;;5008794;28;20367;-80
2022/12/24 11:46:26;;;;;;;27.13;3.80;;;9.70;99.90;;;;;;5026307;28;20201;-80
2022/12/24 11:49:10;;;;;;;25.67;3.97;;;9.70;99.90;;;;;;4999072;28;20128;-80
2022/12/24 11:51:38;;;;;;;16.33;2.83;;;9.70;99.90;;;;;;5004134;28;20060;-79
2022/12/24 11:54:22;;;;;;;19.90;3.20;;;9.70;99.90;;;;;;5014822;28;20483;-79
2022/12/24 11:56:58;;;;;;;18.65;3.78;;;9.70;99.90;;;;;;5017671;28;20041;-79
2022/12/24 11:59:57;;;;;;;24.50;3.85;;;9.70;99.90;;;;;;5019579;28;20045;-79
2022/12/24 12:02:28;;;;;;;16.58;3.08;;;9.70;99.90;;;;;;4981513;28;20153;-79
2022/12/24 12:05:08;;;;;;;25.25;3.92;;;9.70;99.90;;;;;;4994512;28;20497;-78
2022/12/24 12:07:36;;;;;;;23.02;3.65;;;9.70;99.90;;;;;;4994171;28;20045;-79
2022/12/24 12:10:19;;;;;;;16.85;2.92;;;9.80;99.90;;;;;;5021902;28;20043;-79
2022/12/24 12:13:01;;;;;;;17.08;3.47;;;9.80;99.90;;;;;;4999712;28;20077;-80
2022/12/24 12:15:54;;;;;;;16.95;2.95;;;9.70;99.90;;;;;;5004956;28;20092;-80
2022/12/24 12:18:33;;;;;;;26.45;3.67;;;9.70;99.90;;;;;;5004113;28;20041;-80
2022/12/24 12:21:24;;;;;;;20.65;3.22;;;9.70;99.90;;;;;;5001940;28;20159;-80
2022/12/24 12:23:57;;;;;;;20.35;2.92;;;9.60;99.90;;;;;;4987738;28;20056;-79
2022/12/24 12:26:27;;;;;;;19.55;3.47;;;9.70;99.90;;;;;;5007894;28;20038;-78
2022/12/24 12:29:12;;;;;;;21.48;4.15;;;9.70;99.90;;;;;;5022879;28;20128;-78
2022/12/24 12:31:43;;;;;;;22.65;4.35;;;9.60;99.90;;;;;;5016754;28;20099;-80
2022/12/24 12:34:16;;;;;;;15.90;2.67;;;9.60;99.90;;;;;;5018711;28;20475;-81
2022/12/24 12:36:53;;;;;;;22.23;2.90;;;9.60;99.90;;;;;;5008010;28;20049;-78
2022/12/24 12:39:19;;;;;;;18.88;2.53;;;9.60;99.90;;;;;;4999516;28;20037;-79
2022/12/24 12:41:49;;;;;;;21.95;2.95;;;9.70;99.90;;;;;;5003545;28;20555;-79
2022/12/24 12:44:23;;;;;;;18.98;3.88;;;9.70;99.90;;;;;;5012888;28;20447;-79
2022/12/24 12:47:19;;;;;;;25.48;3.42;;;9.70;99.90;;;;;;5020984;28;20056;-79
2022/12/24 12:50:00;;;;;;;22.38;3.78;;;9.70;99.90;;;;;;5008477;28;20045;-79
2022/12/24 12:53:07;;;;;;;25.45;3.03;;;9.60;99.90;;;;;;5017747;28;20375;-79
2022/12/24 12:56:01;;;;;;;14.00;3.17;;;9.70;99.90;;;;;;4969582;28;20045;-79
2022/12/24 12:58:40;;;;;;;16.65;3.55;;;9.70;99.90;;;;;;4993999;28;20319;-80
2022/12/24 13:01:12;;;;;;;20.42;3.17;;;9.70;99.90;;;;;;5014329;28;20431;-79
2022/12/24 13:03:59;;;;;;;19.67;3.78;;;10.30;99.90;;;;;;5002524;28;20049;-79
2022/12/24 13:06:44;;;;;;;12.97;3.00;;;9.70;99.90;;;;;;4996059;28;20470;-79
2022/12/24 13:09:15;;;;;;;14.65;2.47;;;9.70;99.90;;;;;;5013716;28;20300;-80
2022/12/24 13:11:56;;;;;;;18.35;3.60;;;9.80;99.90;;;;;;4999034;28;20054;-80